Terminal Aerodrome Forecast
Issued by NWS Greer, SC

Home | Current Version | Previous Version | Text Only | Print | Product List | Glossary On
Versions: 1 2 3 4 5 6 7 8 9 10 11 12 13 14 15 16 17 18
000
FTUS42 KGSP 281120
TAFGSP
TAF
KGSP 281120Z 2812/2912 34006KT P6SM SKC
      TEMPO 2812/2814 34010G17KT
     FM290000 18003KT P6SM FEW250
     FM290700 20003KT P6SM SCT240=

USA.gov is the U.S. government's official web portal to all federal, state and local government web resources and services.